createdAt,value
2019-05-07T00:00:34.244Z,98471.77
2019-05-07T00:02:16.344Z,98472.65
2019-05-07T00:03:52.345Z,98475.46
2019-05-07T00:05:26.482Z,98475.95
2019-05-07T00:07:02.408Z,98471.99
2019-05-07T00:08:36.946Z,98477.78
2019-05-07T00:10:12.806Z,98479.52
2019-05-07T00:11:47.333Z,98484.54
2019-05-07T00:13:22.690Z,98484.63
2019-05-07T00:15:01.422Z,98489.34
2019-05-07T00:16:33.433Z,98491.63
2019-05-07T00:18:07.684Z,98493.54
2019-05-07T00:19:43.176Z,98494.63
2019-05-07T00:21:18.189Z,98495.72
2019-05-07T00:22:53.347Z,98496.41
2019-05-07T00:24:27.685Z,98501.17
2019-05-07T00:26:03.453Z,98501.39
2019-05-07T00:27:37.946Z,98500.79
2019-05-07T00:29:12.973Z,98503.28
2019-05-07T00:30:47.460Z,98496.70
2019-05-07T00:32:22.239Z,98503.14
2019-05-07T00:33:57.081Z,98507.42
2019-05-07T00:35:32.942Z,98498.72
2019-05-07T00:37:14.648Z,98502.10
2019-05-07T00:38:52.067Z,98507.48
2019-05-07T00:40:37.776Z,98509.84
2019-05-07T00:42:16.794Z,98510.91
2019-05-07T00:43:52.661Z,98512.64
2019-05-07T00:45:28.549Z,98508.82
2019-05-07T00:47:03.314Z,98508.30
2019-05-07T00:48:37.568Z,98516.41
2019-05-07T00:50:13.438Z,98519.73
2019-05-07T00:51:47.672Z,98522.72
2019-05-07T00:53:23.654Z,98520.23
2019-05-07T00:54:58.147Z,98519.95
2019-05-07T00:56:33.202Z,98526.62
2019-05-07T00:58:08.403Z,98523.89
2019-05-07T00:59:43.010Z,98525.09
2019-05-07T01:01:17.304Z,98524.41
2019-05-07T01:02:52.575Z,98534.89
2019-05-07T01:04:26.877Z,98535.66
2019-05-07T01:06:02.108Z,98527.52
2019-05-07T01:07:36.456Z,98523.89
2019-05-07T01:09:12.351Z,98526.53
2019-05-07T01:10:46.633Z,98521.65
2019-05-07T01:12:22.258Z,98533.25
2019-05-07T01:13:57.406Z,98534.41
2019-05-07T01:15:34.513Z,98535.17
2019-05-07T01:17:07.577Z,98533.23
2019-05-07T01:18:42.364Z,98531.34
2019-05-07T01:20:16.621Z,98533.40
2019-05-07T01:21:52.532Z,98529.91
2019-05-07T01:23:28.512Z,98540.99
2019-05-07T01:25:03.684Z,98536.98
2019-05-07T01:26:37.986Z,98544.52
2019-05-07T01:28:13.164Z,98546.64
2019-05-07T01:29:47.680Z,98547.25
2019-05-07T01:31:22.564Z,98550.58
2019-05-07T01:33:02.819Z,98556.70
2019-05-07T01:34:38.701Z,98556.18
2019-05-07T01:36:22.475Z,98551.27
2019-05-07T01:37:56.697Z,98560.36
2019-05-07T01:39:32.634Z,98550.53
2019-05-07T01:41:07.073Z,98556.59
2019-05-07T01:42:42.370Z,98553.31
2019-05-07T01:44:17.901Z,98546.52
2019-05-07T01:45:52.967Z,98547.22
2019-05-07T01:47:27.449Z,98549.62
2019-05-07T01:49:03.046Z,98545.80
2019-05-07T01:50:37.766Z,98550.17
2019-05-07T01:52:13.348Z,98542.34
2019-05-07T01:53:47.713Z,98544.80
2019-05-07T01:55:22.551Z,98542.36
2019-05-07T01:56:57.541Z,98549.34
2019-05-07T01:58:33.177Z,98546.02
2019-05-07T02:00:09.444Z,98544.47
2019-05-07T02:01:44.225Z,98547.77
2019-05-07T02:03:22.892Z,98550.11
2019-05-07T02:05:07.280Z,98551.97
2019-05-07T02:06:43.739Z,98544.68
2019-05-07T02:08:19.584Z,98547.95
2019-05-07T02:10:04.605Z,98546.23
2019-05-07T02:11:42.246Z,98550.83
2019-05-07T02:13:16.365Z,98550.17
2019-05-07T02:14:52.911Z,98543.86
2019-05-07T02:16:26.867Z,98549.54
2019-05-07T02:18:01.941Z,98549.34
2019-05-07T02:19:36.324Z,98544.38
2019-05-07T02:21:12.736Z,98543.92
2019-05-07T02:22:47.186Z,98546.11
2019-05-07T02:24:21.974Z,98538.30
2019-05-07T02:25:56.306Z,98540.31
2019-05-07T02:27:32.647Z,98549.05
2019-05-07T02:29:07.021Z,98543.42
2019-05-07T02:30:44.504Z,98545.75
2019-05-07T02:32:17.171Z,98540.17
2019-05-07T02:33:54.067Z,98539.88
2019-05-07T02:35:27.898Z,98540.50
2019-05-07T02:37:04.006Z,98534.91
2019-05-07T02:38:43.928Z,98541.19
2019-05-07T02:40:22.985Z,98546.89
2019-05-07T02:41:56.842Z,98549.10
2019-05-07T02:43:33.850Z,98552.57
2019-05-07T02:45:15.241Z,98553.85
2019-05-07T02:46:58.965Z,98551.78
2019-05-07T02:48:34.863Z,98551.86
2019-05-07T02:50:16.813Z,98555.55
2019-05-07T02:51:53.144Z,98555.52
2019-05-07T02:53:29.678Z,98555.36
2019-05-07T02:55:13.374Z,98557.56
2019-05-07T02:56:47.767Z,98559.45
2019-05-07T02:58:24.099Z,98560.05
2019-05-07T02:59:58.481Z,98556.23
2019-05-07T03:01:33.534Z,98560.87
2019-05-07T03:03:08.130Z,98567.64
2019-05-07T03:04:43.575Z,98573.13
2019-05-07T03:06:18.496Z,98570.27
2019-05-07T03:07:53.450Z,98568.48
2019-05-07T03:09:28.178Z,98575.51
2019-05-07T03:11:03.303Z,98572.70
2019-05-07T03:12:38.143Z,98574.50
2019-05-07T03:14:14.110Z,98581.98
2019-05-07T03:15:48.336Z,98583.10
2019-05-07T03:17:24.561Z,98586.62
2019-05-07T03:18:59.463Z,98592.84
2019-05-07T03:20:37.772Z,98581.77
2019-05-07T03:22:14.010Z,98585.53
2019-05-07T03:24:07.965Z,98590.42
2019-05-07T03:25:49.316Z,98594.81
2019-05-07T03:27:23.844Z,98583.51
2019-05-07T03:28:59.990Z,98582.58
2019-05-07T03:30:36.639Z,98589.11
2019-05-07T03:32:29.131Z,98590.77
2019-05-07T03:34:07.061Z,98590.91
2019-05-07T03:35:47.250Z,98589.92
2019-05-07T03:37:23.614Z,98587.49
2019-05-07T03:38:57.937Z,98599.18
2019-05-07T03:40:33.503Z,98596.91
2019-05-07T03:42:07.987Z,98600.11
2019-05-07T03:43:43.489Z,98598.69
2019-05-07T03:45:22.878Z,98599.62
2019-05-07T03:47:02.346Z,98598.20
2019-05-07T03:48:34.962Z,98608.60
2019-05-07T03:50:14.731Z,98606.45
2019-05-07T03:51:47.687Z,98602.45
2019-05-07T03:53:23.064Z,98604.16
2019-05-07T03:54:58.182Z,98600.98
2019-05-07T03:56:33.004Z,98602.10
2019-05-07T03:58:07.353Z,98612.75
2019-05-07T03:59:43.162Z,98612.05
2019-05-07T04:01:17.855Z,98613.52
2019-05-07T04:02:52.854Z,98610.44
2019-05-07T04:04:27.810Z,98615.52
2019-05-07T04:06:03.830Z,98617.59
2019-05-07T04:07:38.790Z,98615.24
2019-05-07T04:09:13.440Z,98622.67
2019-05-07T04:10:47.888Z,98624.48
2019-05-07T04:12:23.859Z,98623.98
2019-05-07T04:13:58.586Z,98621.66
2019-05-07T04:15:33.466Z,98624.70
2019-05-07T04:17:22.408Z,98628.03
2019-05-07T04:18:44.200Z,98627.47
2019-05-07T04:20:19.096Z,98630.62
2019-05-07T04:21:53.584Z,98619.88
2019-05-07T04:23:27.870Z,98627.04
2019-05-07T04:25:23.696Z,98633.98
2019-05-07T04:26:58.034Z,98634.88
2019-05-07T04:28:53.719Z,98630.45
2019-05-07T04:30:27.774Z,98637.75
2019-05-07T04:32:03.168Z,98639.03
2019-05-07T04:33:43.673Z,98638.67
2019-05-07T04:35:18.584Z,98635.20
2019-05-07T04:36:53.627Z,98639.10
2019-05-07T04:38:27.935Z,98628.78
2019-05-07T04:40:03.311Z,98637.66
2019-05-07T04:41:37.646Z,98631.31
2019-05-07T04:43:13.690Z,98634.91
2019-05-07T04:44:48.034Z,98637.13
2019-05-07T04:46:23.541Z,98639.13
2019-05-07T04:47:58.203Z,98640.52
2019-05-07T04:49:33.232Z,98640.54
2019-05-07T04:51:12.461Z,98642.64
2019-05-07T04:52:45.438Z,98636.30
2019-05-07T04:54:19.770Z,98642.79
2019-05-07T04:55:54.255Z,98637.78
2019-05-07T04:57:28.552Z,98643.80
2019-05-07T04:59:03.636Z,98640.75
2019-05-07T05:00:38.488Z,98639.41
2019-05-07T05:02:14.501Z,98649.95
2019-05-07T05:03:48.789Z,98647.93
2019-05-07T05:05:23.912Z,98648.28
2019-05-07T05:06:59.028Z,98647.61
2019-05-07T05:08:33.652Z,98650.97
2019-05-07T05:10:08.757Z,98649.38
2019-05-07T05:11:43.879Z,98652.78
2019-05-07T05:13:18.518Z,98646.13
2019-05-07T05:14:53.046Z,98652.89
2019-05-07T05:16:27.350Z,98648.34
2019-05-07T05:18:02.716Z,98645.22
2019-05-07T05:19:37.364Z,98652.84
2019-05-07T05:21:13.569Z,98650.84
2019-05-07T05:23:02.487Z,98649.20
2019-05-07T05:24:38.387Z,98645.18
2019-05-07T05:26:12.711Z,98649.85
2019-05-07T05:27:47.189Z,98652.98
2019-05-07T05:29:22.758Z,98649.36
2019-05-07T05:30:58.713Z,98648.47
2019-05-07T05:32:32.972Z,98648.16
2019-05-07T05:34:07.512Z,98646.45
2019-05-07T05:35:43.068Z,98640.61
2019-05-07T05:37:17.600Z,98646.73
2019-05-07T05:38:52.911Z,98651.20
2019-05-07T05:40:27.617Z,98651.63
2019-05-07T05:42:03.452Z,98656.97
2019-05-07T05:43:39.349Z,98656.44
2019-05-07T05:45:33.599Z,98658.16
2019-05-07T05:47:07.869Z,98664.55
2019-05-07T05:48:42.648Z,98659.44
2019-05-07T05:50:17.285Z,98650.97
2019-05-07T05:51:56.471Z,98654.97
2019-05-07T05:53:38.170Z,98649.98
2019-05-07T05:55:13.605Z,98664.09
2019-05-07T05:56:51.840Z,98663.02
2019-05-07T05:58:32.517Z,98645.12
2019-05-07T06:00:15.005Z,98663.59
2019-05-07T06:02:09.078Z,98655.08
2019-05-07T06:04:02.951Z,98657.42
2019-05-07T06:05:38.557Z,98664.36
2019-05-07T06:07:14.871Z,98664.38
2019-05-07T06:08:52.506Z,98664.39
2019-05-07T06:10:46.995Z,98661.77
2019-05-07T06:12:25.558Z,98662.77
2019-05-07T06:14:17.852Z,98656.16
2019-05-07T06:16:03.162Z,98665.66
2019-05-07T06:17:39.140Z,98662.20
2019-05-07T06:19:26.912Z,98661.09
2019-05-07T06:21:03.065Z,98674.80
2019-05-07T06:22:55.263Z,98671.34
2019-05-07T06:24:42.541Z,98670.52
2019-05-07T06:26:16.327Z,98660.52
2019-05-07T06:27:52.485Z,98671.89
2019-05-07T06:29:26.729Z,98675.87
2019-05-07T06:31:02.140Z,98675.56
2019-05-07T06:32:36.722Z,98678.98
2019-05-07T06:34:12.592Z,98678.81
2019-05-07T06:35:48.783Z,98685.60
2019-05-07T06:37:23.060Z,98681.34
2019-05-07T06:38:58.980Z,98681.59
2019-05-07T06:40:42.343Z,98682.98
2019-05-07T06:42:35.014Z,98686.92
2019-05-07T06:44:12.676Z,98684.27
2019-05-07T06:45:51.869Z,98682.14
2019-05-07T06:47:27.922Z,98684.87
2019-05-07T06:49:02.607Z,98679.90
2019-05-07T06:50:36.933Z,98686.88
2019-05-07T06:52:12.236Z,98686.05
2019-05-07T06:53:46.675Z,98689.59
2019-05-07T06:55:22.805Z,98693.09
2019-05-07T06:56:57.130Z,98698.02
2019-05-07T06:58:52.636Z,98685.80
2019-05-07T07:00:31.947Z,98700.91
2019-05-07T07:02:24.333Z,98700.69
2019-05-07T07:04:02.386Z,98700.53
2019-05-07T07:05:38.024Z,98707.48
2019-05-07T07:07:26.597Z,98697.30
2019-05-07T07:09:06.644Z,98713.52
2019-05-07T07:11:02.588Z,98706.07
2019-05-07T07:12:36.737Z,98709.89
2019-05-07T07:14:11.822Z,98702.64
2019-05-07T07:15:46.482Z,98711.88
2019-05-07T07:17:22.331Z,98706.14
2019-05-07T07:18:56.941Z,98715.34
2019-05-07T07:20:32.654Z,98704.86
2019-05-07T07:22:07.132Z,98713.39
2019-05-07T07:23:42.947Z,98715.08
2019-05-07T07:25:17.620Z,98716.34
2019-05-07T07:26:54.188Z,98715.78
2019-05-07T07:28:28.458Z,98718.48
2019-05-07T07:30:05.060Z,98721.97
2019-05-07T07:31:43.646Z,98721.14
2019-05-07T07:33:19.520Z,98727.36
2019-05-07T07:34:54.185Z,98723.70
2019-05-07T07:36:32.024Z,98728.11
2019-05-07T07:38:24.274Z,98723.88
2019-05-07T07:40:09.321Z,98732.33
2019-05-07T07:41:54.451Z,98720.28
2019-05-07T07:43:32.548Z,98732.21
2019-05-07T07:45:17.794Z,98727.70
2019-05-07T07:46:53.158Z,98734.07
2019-05-07T07:48:29.185Z,98734.00
2019-05-07T07:50:05.344Z,98730.31
2019-05-07T07:51:42.715Z,98728.45
2019-05-07T07:53:15.439Z,98721.62
2019-05-07T07:54:49.942Z,98735.91
2019-05-07T07:56:49.137Z,98725.16
2019-05-07T07:58:13.552Z,98728.73
2019-05-07T07:59:55.916Z,98729.95
2019-05-07T08:01:33.023Z,98732.24
2019-05-07T08:03:10.468Z,98729.36
2019-05-07T08:04:44.681Z,98735.16
2019-05-07T08:06:19.297Z,98732.38
2019-05-07T08:07:53.590Z,98729.74
2019-05-07T08:09:27.876Z,98731.52
2019-05-07T08:11:02.490Z,98734.50
2019-05-07T08:12:37.288Z,98739.64
2019-05-07T08:14:13.822Z,98737.95
2019-05-07T08:15:48.125Z,98744.68
2019-05-07T08:17:22.740Z,98736.95
2019-05-07T08:18:58.802Z,98743.47
2019-05-07T08:20:33.007Z,98750.85
2019-05-07T08:22:08.403Z,98751.23
2019-05-07T08:23:42.637Z,98751.16
2019-05-07T08:25:17.378Z,98751.23
2019-05-07T08:26:53.229Z,98763.33
2019-05-07T08:28:27.497Z,98749.33
2019-05-07T08:30:04.376Z,98760.94
2019-05-07T08:31:47.118Z,98754.16
2019-05-07T08:33:32.226Z,98753.27
2019-05-07T08:35:09.645Z,98728.98
2019-05-07T08:36:45.613Z,98766.31
2019-05-07T08:38:21.941Z,98761.63
2019-05-07T08:39:56.267Z,98767.92
2019-05-07T08:41:31.944Z,98762.21
2019-05-07T08:43:06.800Z,98771.80
2019-05-07T08:44:45.569Z,98765.44
2019-05-07T08:46:30.086Z,98771.63
2019-05-07T08:48:13.284Z,98772.95
2019-05-07T08:49:48.673Z,98774.72
2019-05-07T08:51:22.893Z,98782.33
2019-05-07T08:52:57.094Z,98784.51
2019-05-07T08:54:32.552Z,98772.22
2019-05-07T08:56:08.035Z,98781.17
2019-05-07T08:57:42.325Z,98787.78
2019-05-07T08:59:16.805Z,98780.97
2019-05-07T09:00:52.309Z,98787.98
2019-05-07T09:02:26.768Z,98778.08
2019-05-07T09:04:02.482Z,98776.84
2019-05-07T09:05:36.748Z,98778.86
2019-05-07T09:07:13.092Z,98787.83
2019-05-07T09:08:48.566Z,98775.36
2019-05-07T09:10:22.827Z,98779.88
2019-05-07T09:11:57.045Z,98778.78
2019-05-07T09:13:33.312Z,98788.81
2019-05-07T09:15:08.497Z,98783.48
2019-05-07T09:16:42.967Z,98787.25
2019-05-07T09:18:18.828Z,98782.51
2019-05-07T09:19:54.862Z,98790.87
2019-05-07T09:21:29.634Z,98778.62
2019-05-07T09:23:03.900Z,98786.33
2019-05-07T09:24:38.137Z,98791.74
2019-05-07T09:26:14.036Z,98781.26
2019-05-07T09:27:52.325Z,98784.95
2019-05-07T09:29:33.901Z,98785.82
2019-05-07T09:31:09.805Z,98786.38
2019-05-07T09:32:48.589Z,98792.44
2019-05-07T09:34:33.620Z,98788.08
2019-05-07T09:36:09.714Z,98788.73
2019-05-07T09:37:43.990Z,98789.57
2019-05-07T09:39:18.194Z,98787.97
2019-05-07T09:40:52.712Z,98797.94
2019-05-07T09:42:27.028Z,98788.41
2019-05-07T09:44:03.090Z,98795.91
2019-05-07T09:45:37.156Z,98791.41
2019-05-07T09:47:12.925Z,98798.33
2019-05-07T09:48:47.560Z,98795.81
2019-05-07T09:50:23.079Z,98800.03
2019-05-07T09:51:57.669Z,98800.03
2019-05-07T09:53:32.228Z,98798.38
2019-05-07T09:55:16.716Z,98805.45
2019-05-07T09:56:44.086Z,98807.00
2019-05-07T09:58:33.121Z,98791.03
2019-05-07T09:59:54.986Z,98809.43
2019-05-07T10:01:29.268Z,98816.83
2019-05-07T10:03:03.586Z,98804.91
2019-05-07T10:04:37.809Z,98809.86
2019-05-07T10:06:12.430Z,98808.39
2019-05-07T10:07:47.329Z,98806.23
2019-05-07T10:09:22.298Z,98806.10
2019-05-07T10:10:56.922Z,98809.80
2019-05-07T10:12:33.110Z,98810.55
2019-05-07T10:14:08.916Z,98809.28
2019-05-07T10:15:43.188Z,98809.89
2019-05-07T10:17:22.392Z,98812.20
2019-05-07T10:18:57.466Z,98818.05
2019-05-07T10:20:32.782Z,98818.99
2019-05-07T10:22:07.099Z,98818.73
2019-05-07T10:23:41.674Z,98822.41
2019-05-07T10:25:16.394Z,98812.80
2019-05-07T10:26:53.123Z,98821.27
2019-05-07T10:28:27.716Z,98823.31
2019-05-07T10:30:02.791Z,98828.06
2019-05-07T10:31:37.412Z,98825.55
2019-05-07T10:33:12.347Z,98829.72
2019-05-07T10:34:46.891Z,98832.66
2019-05-07T10:36:23.963Z,98828.39
2019-05-07T10:37:58.411Z,98833.44
2019-05-07T10:39:33.199Z,98837.25
2019-05-07T10:41:07.467Z,98836.34
2019-05-07T10:42:43.006Z,98829.25
2019-05-07T10:44:19.251Z,98828.83
2019-05-07T10:46:12.754Z,98832.81
2019-05-07T10:48:02.558Z,98835.28
2019-05-07T10:49:44.884Z,98838.55
2019-05-07T10:51:19.196Z,98841.87
2019-05-07T10:52:53.528Z,98833.94
2019-05-07T10:54:27.732Z,98844.48
2019-05-07T10:56:03.554Z,98844.41
2019-05-07T10:57:37.762Z,98837.33
2019-05-07T10:59:15.203Z,98843.91
2019-05-07T11:00:49.594Z,98847.00
2019-05-07T11:02:25.688Z,98844.98
2019-05-07T11:04:01.744Z,98852.18
2019-05-07T11:05:35.828Z,98853.30
2019-05-07T11:07:10.085Z,98860.30
2019-05-07T11:08:44.421Z,98850.64
2019-05-07T11:10:18.738Z,98852.91
2019-05-07T11:11:54.611Z,98857.22
2019-05-07T11:13:28.857Z,98852.64
2019-05-07T11:15:03.889Z,98864.17
2019-05-07T11:16:55.985Z,98864.63
2019-05-07T11:18:47.083Z,98871.99
2019-05-07T11:20:22.586Z,98865.34
2019-05-07T11:21:57.243Z,98877.73
2019-05-07T11:23:32.787Z,98875.70
2019-05-07T11:25:08.001Z,98872.51
2019-05-07T11:26:42.827Z,98882.55
2019-05-07T11:28:17.080Z,98885.66
2019-05-07T11:29:51.300Z,98878.63
2019-05-07T11:31:25.625Z,98897.52
2019-05-07T11:32:59.960Z,98890.54
2019-05-07T11:34:35.828Z,98886.48
2019-05-07T11:36:10.760Z,98899.52
2019-05-07T11:37:45.014Z,98893.73
2019-05-07T11:39:22.670Z,98894.50
2019-05-07T11:40:57.144Z,98901.09
2019-05-07T11:42:44.876Z,98900.61
2019-05-07T11:44:19.466Z,98900.23
2019-05-07T11:45:58.831Z,98903.50
2019-05-07T11:47:35.533Z,98899.07
2019-05-07T11:49:14.094Z,98899.66
2019-05-07T11:51:03.146Z,98907.19
2019-05-07T11:52:35.249Z,98912.50
2019-05-07T11:54:13.901Z,98908.77
2019-05-07T11:55:48.124Z,98907.59
2019-05-07T11:57:22.841Z,98906.05
2019-05-07T11:58:57.306Z,98898.72
2019-05-07T12:00:45.300Z,98912.78
2019-05-07T12:02:19.577Z,98910.83
2019-05-07T12:03:53.880Z,98912.69
2019-05-07T12:05:28.192Z,98910.37
2019-05-07T12:07:02.647Z,98917.66
2019-05-07T12:08:44.682Z,98921.91
2019-05-07T12:10:13.166Z,98921.75
2019-05-07T12:11:47.783Z,98921.36
2019-05-07T12:13:22.043Z,98915.69
2019-05-07T12:14:56.246Z,98929.16
2019-05-07T12:16:32.128Z,98915.20
2019-05-07T12:18:06.769Z,98916.09
2019-05-07T12:19:43.860Z,98903.27
2019-05-07T12:21:23.534Z,98917.38
2019-05-07T12:22:54.356Z,98922.48
2019-05-07T12:24:32.707Z,98930.21
2019-05-07T12:26:06.668Z,98926.34
2019-05-07T12:27:40.938Z,98924.70
2019-05-07T12:29:16.792Z,98926.28
2019-05-07T12:30:59.077Z,98925.84
2019-05-07T12:32:43.963Z,98923.70
2019-05-07T12:34:19.841Z,98926.42
2019-05-07T12:35:55.359Z,98924.48
2019-05-07T12:37:31.912Z,98929.33
2019-05-07T12:39:08.143Z,98933.41
2019-05-07T12:40:43.053Z,98933.59
2019-05-07T12:42:17.275Z,98928.64
2019-05-07T12:43:52.015Z,98935.05
2019-05-07T12:45:26.690Z,98935.89
2019-05-07T12:47:01.726Z,98934.45
2019-05-07T12:48:36.582Z,98939.60
2019-05-07T12:50:11.793Z,98938.66
2019-05-07T12:51:56.571Z,98941.95
2019-05-07T12:53:38.959Z,98946.84
2019-05-07T12:55:16.236Z,98945.84
2019-05-07T12:56:51.981Z,98943.71
2019-05-07T12:58:27.035Z,98948.83
2019-05-07T13:00:19.551Z,98943.83
2019-05-07T13:02:17.997Z,98947.70
2019-05-07T13:03:48.349Z,98946.33
2019-05-07T13:05:22.860Z,98952.86
2019-05-07T13:06:58.716Z,98946.28
2019-05-07T13:08:33.074Z,98948.20
2019-05-07T13:10:08.632Z,98948.02
2019-05-07T13:11:43.391Z,98947.02
2019-05-07T13:13:17.608Z,98947.92
2019-05-07T13:14:52.163Z,98947.61
2019-05-07T13:16:26.729Z,98952.14
2019-05-07T13:18:02.764Z,98951.22
2019-05-07T13:19:39.162Z,98947.23
2019-05-07T13:21:13.015Z,98954.77
2019-05-07T13:22:47.317Z,98953.95
2019-05-07T13:24:22.846Z,98955.78
2019-05-07T13:25:57.180Z,98956.86
2019-05-07T13:27:31.989Z,98953.45
2019-05-07T13:29:06.413Z,98960.16
2019-05-07T13:30:43.583Z,98962.54
2019-05-07T13:32:17.935Z,98964.37
2019-05-07T13:33:54.060Z,98957.70
2019-05-07T13:35:28.972Z,98964.53
2019-05-07T13:37:12.751Z,98969.08
2019-05-07T13:38:55.933Z,98978.72
2019-05-07T13:40:34.616Z,98977.50
2019-05-07T13:42:12.741Z,98982.76
2019-05-07T13:43:55.790Z,98975.42
2019-05-07T13:45:31.838Z,98983.26
2019-05-07T13:47:25.916Z,98968.36
2019-05-07T13:49:02.162Z,98979.48
2019-05-07T13:50:36.544Z,98975.26
2019-05-07T13:52:11.791Z,98986.11
2019-05-07T13:53:46.188Z,98989.17
2019-05-07T13:55:21.820Z,98979.87
2019-05-07T13:56:56.378Z,98978.30
2019-05-07T13:58:32.748Z,98988.59
2019-05-07T14:00:12.370Z,98985.94
2019-05-07T14:01:52.121Z,98980.60
2019-05-07T14:03:26.644Z,98981.27
2019-05-07T14:05:01.061Z,98984.63
2019-05-07T14:06:38.439Z,98979.05
2019-05-07T14:08:14.201Z,98985.38
2019-05-07T14:09:48.756Z,98990.98
2019-05-07T14:11:23.100Z,98989.38
2019-05-07T14:13:10.998Z,98991.95
2019-05-07T14:14:34.571Z,98994.27
2019-05-07T14:16:12.029Z,98988.88
2019-05-07T14:17:46.040Z,98988.08
2019-05-07T14:19:22.529Z,98990.89
2019-05-07T14:20:57.883Z,98986.31
2019-05-07T14:22:32.104Z,98990.88
2019-05-07T14:24:06.805Z,98997.52
2019-05-07T14:25:41.919Z,99000.63
2019-05-07T14:27:17.071Z,98999.55
2019-05-07T14:28:52.528Z,99002.52
2019-05-07T14:30:26.979Z,99012.84
2019-05-07T14:32:05.723Z,99010.67
2019-05-07T14:33:54.198Z,99010.59
2019-05-07T14:35:39.213Z,99010.09
2019-05-07T14:37:18.010Z,99021.27
2019-05-07T14:38:53.297Z,99021.58
2019-05-07T14:40:27.699Z,99015.55
2019-05-07T14:42:03.597Z,99021.41
2019-05-07T14:43:48.641Z,99025.64
2019-05-07T14:45:23.796Z,99019.47
2019-05-07T14:46:58.564Z,99030.16
2019-05-07T14:48:36.188Z,99034.31
2019-05-07T14:50:12.224Z,99029.56
2019-05-07T14:51:47.059Z,99027.78
2019-05-07T14:53:22.780Z,99028.62
2019-05-07T14:54:57.097Z,99031.61
2019-05-07T14:56:32.299Z,99033.34
2019-05-07T14:58:06.830Z,99037.84
2019-05-07T14:59:42.761Z,99036.77
2019-05-07T15:01:17.310Z,99037.32
2019-05-07T15:02:52.479Z,99042.61
2019-05-07T15:04:27.182Z,99035.27
2019-05-07T15:06:03.199Z,99044.28
2019-05-07T15:07:38.911Z,99042.88
2019-05-07T15:09:13.266Z,99047.39
2019-05-07T15:10:49.101Z,99049.83
2019-05-07T15:12:23.914Z,99051.28
2019-05-07T15:13:58.464Z,99046.79
2019-05-07T15:15:33.438Z,99049.60
2019-05-07T15:17:09.400Z,99046.63
2019-05-07T15:18:54.176Z,99048.16
2019-05-07T15:20:28.570Z,99044.31
2019-05-07T15:22:20.801Z,99047.06
2019-05-07T15:23:55.609Z,99050.59
2019-05-07T15:25:31.853Z,99049.03
2019-05-07T15:27:06.037Z,99041.40
2019-05-07T15:28:43.409Z,99051.11
2019-05-07T15:30:18.009Z,99051.52
2019-05-07T15:31:59.525Z,99045.53
2019-05-07T15:33:33.841Z,99045.38
2019-05-07T15:35:08.776Z,99044.20
2019-05-07T15:36:43.209Z,99045.38
2019-05-07T15:38:17.500Z,99043.08
2019-05-07T15:39:52.665Z,99045.60
2019-05-07T15:41:27.305Z,99052.69
2019-05-07T15:43:03.653Z,99046.65
2019-05-07T15:44:37.895Z,99042.03
2019-05-07T15:46:12.823Z,99049.21
2019-05-07T15:47:48.752Z,99051.78
2019-05-07T15:49:23.258Z,99040.34
2019-05-07T15:50:57.516Z,99043.95
2019-05-07T15:52:35.877Z,99043.95
2019-05-07T15:54:10.190Z,99045.16
2019-05-07T15:55:44.699Z,99042.34
2019-05-07T15:57:22.352Z,99044.92
2019-05-07T15:58:56.652Z,99048.17
2019-05-07T16:00:33.490Z,99045.32
2019-05-07T16:02:15.141Z,99051.48
2019-05-07T16:03:54.428Z,99049.64
2019-05-07T16:05:25.432Z,99051.37
2019-05-07T16:07:02.243Z,99051.58
2019-05-07T16:08:39.307Z,99056.94
2019-05-07T16:10:15.083Z,99054.18
2019-05-07T16:11:49.559Z,99056.86
2019-05-07T16:13:25.470Z,99061.84
2019-05-07T16:15:00.006Z,99060.14
2019-05-07T16:16:35.884Z,99066.00
2019-05-07T16:18:13.084Z,99064.93
2019-05-07T16:19:48.664Z,99066.98
2019-05-07T16:21:23.370Z,99061.38
2019-05-07T16:23:13.937Z,99069.66
2019-05-07T16:24:39.387Z,99065.84
2019-05-07T16:26:13.664Z,99068.44
2019-05-07T16:27:48.400Z,99072.83
2019-05-07T16:29:22.661Z,99055.58
2019-05-07T16:30:56.937Z,99076.02
2019-05-07T16:32:32.803Z,99072.95
2019-05-07T16:34:07.705Z,99075.44
2019-05-07T16:35:42.493Z,99074.31
2019-05-07T16:37:17.381Z,99078.69
2019-05-07T16:38:52.710Z,99076.88
2019-05-07T16:40:27.485Z,99083.95
2019-05-07T16:42:01.961Z,99082.34
2019-05-07T16:43:36.370Z,99082.05
2019-05-07T16:45:13.180Z,99087.36
2019-05-07T16:46:49.085Z,99084.31
2019-05-07T16:48:23.404Z,99090.00
2019-05-07T16:49:57.736Z,99083.94
2019-05-07T16:51:33.056Z,99084.48
2019-05-07T16:53:07.818Z,99086.70
2019-05-07T16:54:44.878Z,99087.16
2019-05-07T16:56:19.691Z,99094.20
2019-05-07T16:58:04.116Z,99085.16
2019-05-07T16:59:39.194Z,99095.11
2019-05-07T17:01:17.421Z,99095.22
2019-05-07T17:02:53.333Z,99096.14
2019-05-07T17:04:27.572Z,99100.82
2019-05-07T17:06:02.170Z,99098.91
2019-05-07T17:07:38.080Z,99098.95
2019-05-07T17:09:13.722Z,99103.44
2019-05-07T17:10:48.299Z,99101.47
2019-05-07T17:12:22.908Z,99105.16
2019-05-07T17:13:58.760Z,99109.20
2019-05-07T17:15:34.637Z,99104.70
2019-05-07T17:17:08.924Z,99116.34
2019-05-07T17:18:43.515Z,99113.86
2019-05-07T17:20:17.841Z,99110.39
2019-05-07T17:21:52.141Z,99117.69
2019-05-07T17:23:26.426Z,99121.69
2019-05-07T17:25:03.116Z,99118.98
2019-05-07T17:26:37.491Z,99125.02
2019-05-07T17:28:12.627Z,99126.56
2019-05-07T17:29:48.577Z,99130.14
2019-05-07T17:31:23.134Z,99132.63
2019-05-07T17:32:57.434Z,99124.58
2019-05-07T17:34:31.667Z,99132.33
2019-05-07T17:36:06.014Z,99134.54
2019-05-07T17:37:40.997Z,99141.20
2019-05-07T17:39:15.645Z,99139.36
2019-05-07T17:40:51.961Z,99132.18
2019-05-07T17:42:25.884Z,99138.40
2019-05-07T17:44:02.443Z,99145.78
2019-05-07T17:45:36.521Z,99139.20
2019-05-07T17:47:12.672Z,99147.22
2019-05-07T17:48:46.743Z,99151.42
2019-05-07T17:50:22.918Z,99150.86
2019-05-07T17:51:57.234Z,99153.38
2019-05-07T17:53:32.150Z,99157.64
2019-05-07T17:55:10.409Z,99151.30
2019-05-07T17:56:44.539Z,99159.41
2019-05-07T17:58:18.801Z,99162.63
2019-05-07T17:59:53.016Z,99158.77
2019-05-07T18:01:28.874Z,99160.31
2019-05-07T18:03:22.404Z,99164.89
2019-05-07T18:04:57.514Z,99164.74
2019-05-07T18:06:32.199Z,99169.83
2019-05-07T18:08:06.603Z,99173.05
2019-05-07T18:09:42.373Z,99169.66
2019-05-07T18:11:21.338Z,99179.67
2019-05-07T18:12:54.420Z,99179.98
2019-05-07T18:14:32.131Z,99184.42
2019-05-07T18:16:24.766Z,99177.52
2019-05-07T18:18:09.851Z,99189.05
2019-05-07T18:19:45.060Z,99196.38
2019-05-07T18:21:19.361Z,99194.91
2019-05-07T18:22:55.930Z,99204.85
2019-05-07T18:24:30.115Z,99200.59
2019-05-07T18:26:05.313Z,99207.63
2019-05-07T18:27:41.932Z,99199.36
2019-05-07T18:29:18.044Z,99208.96
2019-05-07T18:30:52.361Z,99200.28
2019-05-07T18:32:28.239Z,99212.74
2019-05-07T18:34:02.779Z,99225.70
2019-05-07T18:35:38.574Z,99227.34
2019-05-07T18:37:12.838Z,99221.02
2019-05-07T18:38:48.579Z,99235.47
2019-05-07T18:40:23.205Z,99227.92
2019-05-07T18:41:57.806Z,99234.09
2019-05-07T18:43:33.147Z,99236.55
2019-05-07T18:45:08.096Z,99238.05
2019-05-07T18:46:42.338Z,99245.30
2019-05-07T18:48:16.900Z,99234.84
2019-05-07T18:49:51.880Z,99244.44
2019-05-07T18:51:29.462Z,99241.78
2019-05-07T18:53:03.647Z,99247.95
2019-05-07T18:54:38.135Z,99241.25